Flight Track Log - Related Links

Times and Time Zones

All times are in EDT time to prevent confusion due to time zone crossing. See the WBR2633 flight status page for this flight to view local times or setup timezone preferences in your user account.

Time Position Orientation Groundspeed Altitude Reporting Facility
EDT Latitude Longitude Course Direction KTS MPH feet Rate Location/Type
Thu 11:27:04 AM 40.7150 -91.0989 164° South 139 160 2,500  Level Chicago Center
Thu 11:28:06 AM 40.6817 -91.0878 166° South 126 145 3,400 774 Climbing Chicago Center
Thu 11:29:00 AM 40.4434 -90.9960 164° South  Level Estimated
Thu 11:29:08 AM 40.6481 -91.0778 167° South 123 142 4,100  Level Chicago Center
Thu 11:30:00 AM 40.4009 -90.9799 164° South  Level Estimated
Thu 11:30:10 AM 40.6036 -91.0617 165° South 132 152 4,900  Level Chicago Center
Thu 11:31:00 AM 40.3584 -90.9639 164° South  Level Estimated
Thu 11:31:12 AM 40.5622 -91.0467 165° South 144 166 4,900  Level Chicago Center
Thu 11:32:00 AM 40.3159 -90.9478 164° South  Level Estimated
Thu 11:32:14 AM 40.5194 -91.0294 163° South 153 176 5,000  Level Chicago Center
Thu 11:33:15 AM 40.4778 -91.0133 164° South 155 178 5,000  Level Chicago Center
Thu 11:34:17 AM 40.4300 -90.9947 163° South 163 188 5,000  Level Chicago Center
Thu 11:35:19 AM 40.3897 -90.9789 163° South 163 188 5,000 -48 Level Chicago Center
Thu 11:36:21 AM 40.3422 -90.9617 165° South 152 175 4,900 -48 Descending Chicago Center
Thu 11:37:23 AM 40.2997 -90.9467 165° South 155 178 4,900 48 Level Chicago Center
Thu 11:38:25 AM 40.2578 -90.9303 163° South 156 180 5,000 48 Climbing Chicago Center
Thu 11:39:27 AM 40.2153 -90.9172 167° South 156 180 5,000  Level Chicago Center
Thu 11:40:29 AM 40.1750 -90.9025 164° South 157 181 5,000  Level Chicago Center
Thu 11:41:31 AM 40.1328 -90.8853 163° South 157 181 5,000 -48 Level Chicago Center
Thu 11:42:33 AM 40.0814 -90.8653 163° South 160 184 4,900 -48 Descending Chicago Center
Thu 11:43:35 AM 40.0400 -90.8472 162° South 160 184 4,900  Level Chicago Center
Thu 11:44:37 AM 39.9981 -90.8300 163° South 157 181 4,900  Level Chicago Center
Thu 11:45:39 AM 39.9544 -90.8147 165° South 162 186 4,900  Level Chicago Center
Thu 11:46:41 AM 39.9128 -90.7972 162° South 160 184 4,900  Level Chicago Center
Thu 11:48:07 AM 39.8519 -90.7714 162° South 159 183 4,900  Level Kansas City Center
Thu 11:49:09 AM 39.8094 -90.7536 162° South 159 183 4,900  Level Kansas City Center
Thu 11:50:11 AM 39.7586 -90.7347 164° South 159 183 4,900  Level Kansas City Center
Thu 11:51:13 AM 39.7219 -90.7200 163° South 159 183 4,900 48 Level Kansas City Center
Thu 11:52:15 AM 39.6719 -90.6983 162° South 159 183 5,000 48 Climbing Kansas City Center
Thu 11:53:17 AM 39.6294 -90.6792 161° South 160 184 5,000 -48 Level Kansas City Center
Thu 11:54:19 AM 39.5864 -90.6633 164° South 162 186 4,900 -48 Descending Kansas City Center
Thu 11:55:21 AM 39.5431 -90.6464 163° South 161 185 4,900  Level Kansas City Center
Thu 11:56:23 AM 39.5006 -90.6294 163° South 162 186 4,900 48 Level Kansas City Center
Thu 11:57:25 AM 39.4561 -90.6147 166° South 163 188 5,000 48 Climbing Kansas City Center
Thu 11:58:27 AM 39.4128 -90.5700 141° Southeast 167 192 5,000  Level Kansas City Center
Thu 11:59:33 AM 39.3767 -90.5314 140° Southeast 171 197 5,000 47 Level Kansas City Center
Thu 12:00:35 PM 39.3397 -90.4961 144° Southeast 166 191 5,100  Climbing Kansas City Center
Thu 12:01:37 PM 39.3028 -90.4586 142° Southeast 168 193 5,000 -48 Descending Kansas City Center
Thu 12:02:39 PM 39.2569 -90.4156 144° Southeast 169 194 5,000  Level Kansas City Center
Thu 12:03:41 PM 39.2192 -90.3794 143° Southeast 169 194 5,000  Level Kansas City Center
Thu 12:04:43 PM 39.1825 -90.3425 142° Southeast 169 194 5,000  Level Kansas City Center
Thu 12:05:45 PM 39.1439 -90.3072 145° Southeast 168 193 5,000  Level Kansas City Center
Thu 12:06:47 PM 39.1053 -90.2717 144° Southeast 169 194 5,000 48 Level Kansas City Center
Thu 12:07:49 PM 39.0678 -90.2364 144° Southeast 169 194 5,100  Climbing Kansas City Center
Thu 12:08:51 PM 39.0294 -90.2011 144° Southeast 169 194 5,000 -48 Descending Kansas City Center
Thu 12:09:53 PM 38.9842 -90.1592 144° Southeast 168 193 5,000  Level Kansas City Center
Thu 12:10:55 PM 38.9439 -90.1269 148° Southeast 169 194 5,000 48 Level Kansas City Center
Thu 12:11:57 PM 38.9036 -90.0992 152° Southeast 166 191 5,100  Climbing Kansas City Center
Thu 12:12:59 PM 38.8600 -90.0839 165° South 163 188 5,000 -48 Descending Kansas City Center
Thu 12:14:01 PM 38.8181 -90.0906 187° South 160 184 5,000 -242 Level Kansas City Center
Thu 12:15:03 PM 38.7781 -90.1044 195° South 153 176 4,500 -677 Descending Kansas City Center
Thu 12:16:05 PM 38.7322 -90.1267 201° Southwest 150 173 3,600 -968 Descending Kansas City Center
Thu 12:17:07 PM 38.7011 -90.1597 220° Southwest 154 177 2,500 -532 Descending Kansas City Center
Thu 12:18:09 PM 38.6728 -90.1939 223° Southwest 146 168 2,500 -48 Level Kansas City Center
Thu 12:19:11 PM 38.6886 -90.2344 297° West 139 160 2,400 -384 Descending Kansas City Center
Thu 12:20:14 PM 38.7075 -90.2764 300° West 136 157 1,700 -672 Descending Kansas City Center
Thu 12:21:16 PM 38.7272 -90.3156 303° West 135 155 1,000 -532 Descending Kansas City Center
Thu 12:22:18 PM 38.7450 -90.3506 303° West 104 120 600 -387 Descending Kansas City Center

Login

Don't have an account? Register now (free) for customized features, flight alerts, and more!